Jackson County Reynolds Field
KJXN : now visible

Airfield :











YOU CAN JOIN US ON...

 
LOGIN :

Register | Disclaimer

   EN    FR    IT 

 









Legend :    VFR   Marginal VFR   IFR   Intensive IFR   Very Intensive IFR
Visi :
Ceiling :
>= 8 km
>= 3000ft
5 to 8 km
1000 to 3000 ft
1500m to 5 km
500 to 1000 ft
800 to 1500m
200 to 500 ft
< 800m
< 200 ft
Symbols :   Thunderstorms  Fog  Heavy snow  Heavy precipitations  Wind > 20 kt






- Airport Elevation : 1001 ft


KJXN - Jackson County Reynolds Field

CURRENT METAR :
  • 072056Z VRB03KT 10SM BKN070 26/09 A3017 RMK AO2 SLP214 T02560094 56008

EXPIRED METARs :
  • 071956Z 00000KT 10SM CLR 27/09 A3017 RMK AO2 SLP213 T02720089
  • 071856Z 36005KT 10SM CLR 27/09 A3018 RMK AO2 SLP217 T02670089

TAF KJXN
Valid from the 07 at 18:00 until the 08 at 18:00 UTC


071740Z 0718/0818 VRB03KT P6SM SCT050
FM080000 00000KT P6SM SKC
FM081200 19004KT P6SM SKC
KZOB FIR / North America



MET'MAP, your aeronautical weather chart ! - Copyright ORBIFLY December 2007 - Disclaimer

ORBIFLY MET'MAP TEAM :

Programming & Development : Alexandra Zaïnal
Concept & original design : Baudouin d'Aumeries
Assistance for programming : Marc-Olivier Méhu
Technical & hardware support : Manuel Goepfert

Contact : metmap@orbifly.com




SOURCES & CREDITS :

   NOAA       Earth
Advisory